Time;durP1;ratioP1;P1;durP2;ratioP2;P2;SDS_P1;SDS_P2;PMS_P1;PMS_P2;Temp;Humidity;BMP_temperature;BMP_pressure;BME280_temperature;BME280_humidity;BME280_pressure;Samples;Min_cycle;Max_cycle;Signal;HPM_P1;HPM_P2
2021/08/08 00:01:06;;;;;;;2.60;1.05;;;;;;;18.51;71.32;99709.59;4897922;28;127766;-66
2021/08/08 00:03:32;;;;;;;2.97;1.20;;;;;;;18.50;70.91;99702.56;4868413;28;98178;-70
2021/08/08 00:05:58;;;;;;;2.45;1.25;;;;;;;18.46;71.01;99707.88;4917907;28;98946;-71
2021/08/08 00:08:26;;;;;;;3.28;1.20;;;;;;;18.42;70.85;99698.00;4901604;28;125748;-65
2021/08/08 00:10:52;;;;;;;2.88;1.20;;;;;;;18.37;70.90;99707.19;4898328;28;99995;-65
2021/08/08 00:13:18;;;;;;;2.72;1.20;;;;;;;18.34;70.73;99716.03;4899371;28;111714;-70
2021/08/08 00:15:44;;;;;;;2.30;1.10;;;;;;;18.29;70.79;99708.88;4910405;28;98198;-65
2021/08/08 00:18:10;;;;;;;2.30;1.10;;;;;;;18.26;70.88;99720.44;4911819;28;125926;-71
2021/08/08 00:20:36;;;;;;;1.80;0.90;;;;;;;18.25;71.10;99721.59;4902665;28;98194;-65
2021/08/08 00:23:03;;;;;;;2.78;0.90;;;;;;;18.23;71.42;99721.13;4866503;28;125756;-70
2021/08/08 00:25:29;;;;;;;3.33;0.73;;;;;;;18.21;71.05;99717.16;4900326;28;98228;-70
2021/08/08 00:27:55;;;;;;;1.95;0.73;;;;;;;18.17;71.05;99714.28;4884951;28;99574;-70
2021/08/08 00:30:21;;;;;;;2.38;0.80;;;;;;;18.16;70.89;99715.44;4900689;28;118177;-65
2021/08/08 00:32:48;;;;;;;3.22;0.90;;;;;;;18.13;70.76;99722.34;4883251;28;98268;-70
2021/08/08 00:35:14;;;;;;;3.28;0.65;;;;;;;18.08;71.07;99728.03;4882303;28;98271;-71
2021/08/08 00:37:44;;;;;;;1.92;0.75;;;;;;;18.03;71.12;99730.13;4884922;28;98175;-65
2021/08/08 00:40:14;;;;;;;1.30;0.73;;;;;;;17.98;71.03;99736.59;4899789;28;98804;-71
2021/08/08 00:42:42;;;;;;;1.75;1.00;;;;;;;17.95;71.22;99728.28;4899422;28;105270;-65
2021/08/08 00:45:09;;;;;;;3.40;0.95;;;;;;;17.90;71.37;99726.56;4903718;28;98325;-71
2021/08/08 00:47:35;;;;;;;2.40;1.00;;;;;;;17.85;71.36;99727.56;4902135;28;98074;-71
2021/08/08 00:50:01;;;;;;;2.75;0.90;;;;;;;17.81;71.46;99713.00;4913671;28;128026;-70
2021/08/08 00:52:28;;;;;;;1.73;0.70;;;;;;;17.77;71.62;99720.28;4898652;28;98292;-65
2021/08/08 00:54:54;;;;;;;2.67;0.80;;;;;;;17.75;71.69;99730.69;4904409;28;97886;-71
2021/08/08 00:57:20;;;;;;;2.30;0.90;;;;;;;17.73;71.71;99721.25;4887539;28;127100;-71
2021/08/08 00:59:46;;;;;;;3.75;0.80;;;;;;;17.69;71.77;99729.28;4903629;28;99212;-70
2021/08/08 01:02:12;;;;;;;1.55;0.93;;;;;;;17.67;71.75;99726.88;4900048;28;117608;-65
2021/08/08 01:04:45;;;;;;;4.38;0.90;;;;;;;17.63;71.76;99733.31;4883878;28;98363;-70
2021/08/08 01:07:24;;;;;;;2.45;0.85;;;;;;;17.60;71.53;99732.03;4900071;28;115578;-70
2021/08/08 01:09:53;;;;;;;1.52;0.90;;;;;;;17.59;71.86;99733.19;4891987;28;112837;-70
2021/08/08 01:12:20;;;;;;;3.15;0.82;;;;;;;17.59;71.93;99737.84;4887507;28;97847;-70
2021/08/08 01:14:47;;;;;;;2.78;0.88;;;;;;;17.59;71.89;99737.84;4884641;28;98040;-71
2021/08/08 01:17:14;;;;;;;2.30;1.00;;;;;;;17.58;71.87;99731.59;4907378;28;114243;-65
2021/08/08 01:19:59;;;;;;;4.57;1.15;;;;;;;17.58;71.56;99728.06;4903279;28;116030;-70
2021/08/08 01:22:30;;;;;;;3.80;1.20;;;;;;;17.55;71.58;99739.63;4906649;28;98468;-71
2021/08/08 01:24:57;;;;;;;2.50;1.10;;;;;;;17.53;71.84;99742.69;4921097;28;97986;-68
2021/08/08 01:27:24;;;;;;;4.13;1.08;;;;;;;17.51;71.75;99736.75;4890881;28;108408;-70
2021/08/08 01:29:53;;;;;;;1.80;0.90;;;;;;;17.50;71.67;99724.28;4906278;28;97931;-65
2021/08/08 01:32:19;;;;;;;3.28;0.82;;;;;;;17.51;71.72;99723.16;4890180;28;98119;-69
2021/08/08 01:34:47;;;;;;;2.90;1.00;;;;;;;17.51;71.63;99719.63;4902815;28;98056;-70
2021/08/08 01:37:17;;;;;;;3.97;1.10;;;;;;;17.54;71.51;99733.38;4925136;28;98712;-71
2021/08/08 01:39:45;;;;;;;2.97;1.10;;;;;;;17.55;71.58;99737.69;4893667;28;99269;-70
2021/08/08 01:42:11;;;;;;;3.55;1.00;;;;;;;17.56;71.63;99744.75;4887246;28;98117;-70
2021/08/08 01:44:44;;;;;;;3.17;1.02;;;;;;;17.58;71.36;99742.50;4906251;28;97890;-71
2021/08/08 01:47:11;;;;;;;3.15;1.17;;;;;;;17.59;71.43;99733.19;4888088;28;98021;-65
2021/08/08 01:49:38;;;;;;;3.58;1.10;;;;;;;17.62;71.31;99745.34;4872544;28;120965;-71
2021/08/08 01:52:06;;;;;;;2.08;1.00;;;;;;;17.63;71.60;99738.78;4888822;28;98941;-70
2021/08/08 01:54:32;;;;;;;2.47;0.95;;;;;;;17.63;71.60;99744.22;4907406;28;97932;-70
2021/08/08 01:56:58;;;;;;;4.45;0.82;;;;;;;17.65;71.35;99737.31;4892600;28;98030;-70
2021/08/08 01:59:24;;;;;;;3.28;1.00;;;;;;;17.64;71.43;99738.47;4902297;28;98124;-70
2021/08/08 02:01:50;;;;;;;2.80;1.00;;;;;;;17.66;71.18;99738.13;4907198;28;97938;-71
2021/08/08 02:04:21;;;;;;;1.63;0.68;;;;;;;17.65;71.00;99744.69;4909104;28;114575;-70
2021/08/08 02:06:48;;;;;;;2.47;0.90;;;;;;;17.64;71.06;99741.19;4908412;28;99535;-70
2021/08/08 02:09:14;;;;;;;2.88;0.85;;;;;;;17.63;71.22;99738.78;4904030;28;98436;-71
2021/08/08 02:11:40;;;;;;;3.13;0.73;;;;;;;17.60;70.96;99747.59;4916460;28;127533;-71
2021/08/08 02:14:06;;;;;;;3.90;0.95;;;;;;;17.54;70.97;99746.22;4901092;28;122721;-70
2021/08/08 02:16:33;;;;;;;2.67;0.88;;;;;;;17.51;71.03;99746.88;4917856;28;99711;-70
2021/08/08 02:18:59;;;;;;;1.70;0.68;;;;;;;17.46;71.30;99749.78;4903230;28;98440;-65
2021/08/08 02:21:26;;;;;;;2.50;0.80;;;;;;;17.42;71.24;99761.34;4916240;28;115375;-65
2021/08/08 02:23:52;;;;;;;2.42;1.00;;;;;;;17.38;71.21;99765.06;4932485;28;109699;-65
2021/08/08 02:26:18;;;;;;;2.20;0.85;;;;;;;17.35;71.28;99755.63;4904484;28;101268;-70
2021/08/08 02:28:44;;;;;;;4.18;1.00;;;;;;;17.32;71.07;99761.72;4903345;28;113119;-70
2021/08/08 02:31:15;;;;;;;2.05;0.68;;;;;;;17.27;71.17;99761.13;4898465;28;116050;-65
2021/08/08 02:33:41;;;;;;;4.28;1.08;;;;;;;17.24;71.57;99764.50;4901493;28;97884;-65
2021/08/08 02:36:07;;;;;;;2.65;0.90;;;;;;;17.21;71.31;99765.13;4899949;28;128156;-70
2021/08/08 02:38:33;;;;;;;4.75;1.15;;;;;;;17.16;71.72;99766.13;4902120;28;127886;-70
2021/08/08 02:40:59;;;;;;;3.35;1.13;;;;;;;17.12;71.56;99770.63;4899850;28;125894;-65
2021/08/08 02:43:25;;;;;;;1.95;0.93;;;;;;;17.08;71.51;99777.84;4903849;28;98341;-65
2021/08/08 02:45:51;;;;;;;3.28;1.00;;;;;;;17.04;71.71;99785.88;4900342;28;128139;-65
2021/08/08 02:48:18;;;;;;;1.98;1.00;;;;;;;17.03;71.88;99783.50;4903372;28;99185;-70
2021/08/08 02:50:44;;;;;;;3.80;1.08;;;;;;;17.00;72.15;99793.09;4902958;28;127408;-70
2021/08/08 02:53:10;;;;;;;2.30;1.00;;;;;;;16.98;71.84;99798.09;4900136;28;97909;-69
2021/08/08 02:55:37;;;;;;;2.65;0.95;;;;;;;16.96;72.00;99797.59;4905640;28;98106;-70
2021/08/08 02:58:03;;;;;;;2.75;0.90;;;;;;;16.91;72.03;99804.03;4888241;28;116957;-69
2021/08/08 03:00:29;;;;;;;2.92;0.95;;;;;;;16.86;72.27;99812.38;4916084;28;98825;-70
2021/08/08 03:02:55;;;;;;;3.33;0.75;;;;;;;16.84;72.15;99821.97;4882986;28;122958;-69
2021/08/08 03:05:21;;;;;;;4.03;1.40;;;;;;;16.82;72.16;99825.03;4899631;28;109089;-71
2021/08/08 03:07:49;;;;;;;3.17;0.98;;;;;;;16.81;72.36;99819.91;4888474;28;125134;-69
2021/08/08 03:10:15;;;;;;;2.40;1.02;;;;;;;16.79;72.50;99811.28;4900156;28;98699;-65
2021/08/08 03:12:41;;;;;;;2.53;0.95;;;;;;;16.76;72.25;99804.56;4915542;28;123610;-70
2021/08/08 03:15:07;;;;;;;2.55;0.90;;;;;;;16.75;72.50;99815.78;4883014;28;127392;-70
2021/08/08 03:17:33;;;;;;;2.97;0.80;;;;;;;16.72;72.43;99838.94;4882369;28;99421;-65
2021/08/08 03:20:00;;;;;;;1.35;0.63;;;;;;;16.71;72.44;99848.25;4882385;28;127780;-70
2021/08/08 03:22:26;;;;;;;1.90;0.80;;;;;;;16.70;72.71;99852.06;4901043;28;114206;-70
2021/08/08 03:24:52;;;;;;;2.88;0.75;;;;;;;16.69;72.58;99859.44;4903319;28;127490;-65
2021/08/08 03:27:18;;;;;;;3.72;0.90;;;;;;;16.69;72.67;99859.44;4902222;28;98205;-69
2021/08/08 03:29:44;;;;;;;1.92;0.77;;;;;;;16.68;72.74;99863.28;4900136;28;98248;-64
2021/08/08 03:32:10;;;;;;;3.17;1.00;;;;;;;16.66;72.82;99868.25;4900984;28;123381;-69
2021/08/08 03:34:36;;;;;;;2.97;0.82;;;;;;;16.64;72.87;99867.75;4881691;28;126797;-70
2021/08/08 03:37:02;;;;;;;2.97;0.80;;;;;;;16.62;72.61;99875.47;4898837;28;127701;-64
2021/08/08 03:39:29;;;;;;;2.17;0.68;;;;;;;16.62;72.60;99872.75;4900703;28;106604;-65
2021/08/08 03:41:55;;;;;;;2.47;0.90;;;;;;;16.62;72.71;99872.75;4898985;28;97860;-70
2021/08/08 03:44:21;;;;;;;3.03;0.80;;;;;;;16.61;72.77;99868.41;4882818;28;98568;-69
2021/08/08 03:46:48;;;;;;;2.65;0.90;;;;;;;16.60;72.98;99868.72;4901197;28;98658;-69
2021/08/08 03:49:14;;;;;;;4.38;1.00;;;;;;;16.57;72.71;99866.66;4898141;28;98499;-69
2021/08/08 03:51:40;;;;;;;3.03;0.88;;;;;;;16.57;72.63;99867.44;4901666;28;98206;-69
2021/08/08 03:54:09;;;;;;;2.10;0.80;;;;;;;16.60;72.68;99880.41;4899079;28;127064;-65
2021/08/08 03:56:35;;;;;;;3.85;1.10;;;;;;;16.60;72.75;99888.56;4900457;28;98145;-69
2021/08/08 03:59:02;;;;;;;3.53;0.88;;;;;;;16.60;72.77;99888.56;4883530;28;98531;-70
2021/08/08 04:01:28;;;;;;;2.75;0.93;;;;;;;16.61;72.74;99883.94;4901568;28;98320;-69
2021/08/08 04:03:54;;;;;;;2.28;0.70;;;;;;;16.63;72.63;99896.09;4905358;28;98448;-69
2021/08/08 04:06:20;;;;;;;3.47;1.00;;;;;;;16.65;72.50;99899.28;4901461;28;97788;-69
2021/08/08 04:08:47;;;;;;;2.85;1.02;;;;;;;16.67;72.15;99907.16;4900063;28;127457;-69
2021/08/08 04:11:13;;;;;;;3.55;0.88;;;;;;;16.69;72.44;99902.16;4902279;28;98084;-70
2021/08/08 04:13:39;;;;;;;3.55;0.90;;;;;;;16.70;72.33;99911.91;4884449;28;117340;-65
2021/08/08 04:16:06;;;;;;;2.83;0.85;;;;;;;16.71;72.48;99916.28;4903558;28;98592;-69
2021/08/08 04:18:32;;;;;;;1.88;0.90;;;;;;;16.72;72.39;99906.97;4906422;28;97832;-69
2021/08/08 04:20:59;;;;;;;2.85;0.80;;;;;;;16.73;72.32;99915.94;4896468;28;122265;-69
2021/08/08 04:23:25;;;;;;;4.30;0.90;;;;;;;16.71;72.73;99921.72;4902544;28;97841;-65
2021/08/08 04:25:51;;;;;;;3.03;0.90;;;;;;;16.72;72.55;99922.50;4902419;28;127732;-69
2021/08/08 04:28:17;;;;;;;2.55;0.90;;;;;;;16.75;72.69;99924.63;4903285;28;127512;-69
2021/08/08 04:30:43;;;;;;;2.38;0.80;;;;;;;16.76;72.45;99929.72;4884433;28;98100;-69
2021/08/08 04:33:09;;;;;;;2.58;0.80;;;;;;;16.80;72.42;99932.63;4897994;28;99255;-69
2021/08/08 04:35:39;;;;;;;1.95;1.10;;;;;;;16.84;72.32;99934.38;4899854;28;125404;-69
2021/08/08 04:38:06;;;;;;;2.58;0.98;;;;;;;16.89;72.09;99931.47;4897222;28;97793;-65
2021/08/08 04:40:32;;;;;;;3.08;0.82;;;;;;;16.96;71.75;99935.63;4903521;28;97917;-65
2021/08/08 04:43:05;;;;;;;2.40;0.98;;;;;;;16.99;71.72;99938.53;4905164;28;127126;-68
2021/08/08 04:45:31;;;;;;;3.00;0.80;;;;;;;17.05;71.73;99942.66;4902831;28;99720;-69
2021/08/08 04:47:57;;;;;;;3.05;0.60;;;;;;;17.08;71.83;99946.66;4900391;28;98161;-69
2021/08/08 04:50:23;;;;;;;2.95;0.90;;;;;;;17.12;71.47;99956.59;4900469;28;123390;-65
2021/08/08 04:52:50;;;;;;;2.08;0.70;;;;;;;17.14;71.52;99950.84;4884855;28;98943;-69
2021/08/08 04:55:16;;;;;;;1.58;0.80;;;;;;;17.15;71.47;99944.25;4905937;28;98495;-69
2021/08/08 04:57:42;;;;;;;2.00;0.63;;;;;;;17.15;71.33;99955.94;4871867;28;122408;-65
2021/08/08 05:00:09;;;;;;;1.95;0.70;;;;;;;17.12;71.31;99959.31;4867932;28;122621;-70
2021/08/08 05:02:36;;;;;;;2.70;0.75;;;;;;;17.13;71.28;99952.75;4885756;28;98565;-65
2021/08/08 05:05:06;;;;;;;2.53;0.70;;;;;;;17.12;71.21;99950.34;4901943;28;100637;-70
2021/08/08 05:07:38;;;;;;;3.45;0.70;;;;;;;17.15;71.43;99950.50;4906609;28;98145;-65
2021/08/08 05:10:06;;;;;;;2.83;0.70;;;;;;;17.20;71.38;99954.16;4907224;28;97790;-69
2021/08/08 05:12:36;;;;;;;2.83;0.63;;;;;;;17.22;71.29;99963.63;4877691;28;102258;-69
2021/08/08 05:15:03;;;;;;;3.28;0.90;;;;;;;17.28;71.49;99961.53;4908441;28;98225;-69
2021/08/08 05:17:29;;;;;;;1.73;0.82;;;;;;;17.33;71.14;99973.06;4894591;28;111160;-69
2021/08/08 05:19:55;;;;;;;1.75;0.90;;;;;;;17.40;71.22;99970.63;4906842;28;98121;-69
2021/08/08 05:22:22;;;;;;;2.00;0.80;;;;;;;17.43;71.18;99977.34;4907506;28;98233;-69
2021/08/08 05:24:49;;;;;;;2.25;0.80;;;;;;;17.46;71.11;99973.19;4892071;28;98059;-69
2021/08/08 05:27:15;;;;;;;2.03;0.95;;;;;;;17.55;70.70;99974.75;4873883;28;98802;-69
2021/08/08 05:29:41;;;;;;;2.15;0.80;;;;;;;17.52;70.87;99980.03;4907394;28;121242;-70
2021/08/08 05:32:07;;;;;;;3.75;0.80;;;;;;;17.62;70.48;99979.69;4889829;28;97989;-70
2021/08/08 05:34:34;;;;;;;2.83;1.20;;;;;;;17.84;69.90;99981.41;4909114;28;105799;-69
2021/08/08 05:37:00;;;;;;;1.55;1.00;;;;;;;17.99;69.80;99980.84;4888988;28;117465;-65
2021/08/08 05:39:26;;;;;;;2.28;1.05;;;;;;;18.16;69.50;99979.97;4889184;28;98070;-69
2021/08/08 05:41:52;;;;;;;3.60;1.20;;;;;;;18.35;69.13;99982.25;4890938;28;127226;-70
2021/08/08 05:44:18;;;;;;;2.33;0.85;;;;;;;18.52;68.60;99987.59;4904500;28;97952;-70
2021/08/08 05:46:44;;;;;;;2.95;0.60;;;;;;;18.70;68.18;99982.00;4896817;28;126693;-69
2021/08/08 05:49:10;;;;;;;3.28;0.80;;;;;;;18.85;68.06;99976.78;4907022;28;117021;-70
2021/08/08 05:51:39;;;;;;;1.65;0.55;;;;;;;19.00;67.47;99980.81;4896403;28;99133;-65
2021/08/08 05:54:05;;;;;;;1.90;0.70;;;;;;;19.19;66.98;99996.72;4897369;28;98695;-65
2021/08/08 05:56:31;;;;;;;2.75;0.90;;;;;;;19.34;66.56;99987.91;4896358;28;126033;-65
2021/08/08 05:58:57;;;;;;;2.95;0.60;;;;;;;19.50;66.10;99998.97;4864319;28;121768;-65
2021/08/08 06:01:23;;;;;;;1.85;0.60;;;;;;;19.67;65.37;99997.22;4863842;28;100016;-65
2021/08/08 06:03:50;;;;;;;1.55;0.60;;;;;;;19.82;65.24;99999.28;4896718;28;128952;-65
2021/08/08 06:06:17;;;;;;;2.88;0.55;;;;;;;20.02;64.97;100000.31;4884267;28;116845;-69
2021/08/08 06:08:43;;;;;;;1.67;0.40;;;;;;;20.21;64.71;100000.56;4902485;28;97900;-70
2021/08/08 06:11:09;;;;;;;2.00;0.40;;;;;;;20.43;63.98;100006.69;4897775;28;128125;-65
2021/08/08 06:13:35;;;;;;;3.38;0.40;;;;;;;20.64;63.32;100012.06;4900880;28;98325;-69
2021/08/08 06:16:01;;;;;;;2.83;0.45;;;;;;;20.86;62.91;100005.25;4898635;28;98038;-69
2021/08/08 06:18:27;;;;;;;2.47;0.40;;;;;;;21.08;62.37;100000.03;4899071;28;123300;-69
2021/08/08 06:20:53;;;;;;;1.77;0.40;;;;;;;21.36;61.63;100001.97;4897515;28;128169;-70
2021/08/08 06:23:19;;;;;;;1.73;0.40;;;;;;;21.72;60.99;100003.69;4876381;28;127842;-70
2021/08/08 06:25:45;;;;;;;1.13;0.30;;;;;;;22.23;60.10;100011.22;4898085;28;113268;-69
2021/08/08 06:28:11;;;;;;;2.85;0.40;;;;;;;22.85;58.32;100014.97;4896928;28;98143;-65
2021/08/08 06:30:37;;;;;;;1.80;0.30;;;;;;;23.47;57.14;100015.03;4880713;28;98689;-65
2021/08/08 06:33:03;;;;;;;1.05;0.30;;;;;;;24.09;55.52;100012.97;4896641;28;114713;-65
2021/08/08 06:35:29;;;;;;;2.22;0.30;;;;;;;24.85;53.59;100012.13;4896171;28;127444;-65
2021/08/08 06:37:56;;;;;;;2.42;0.20;;;;;;;25.61;51.89;100015.34;4896087;28;123308;-65
2021/08/08 06:40:22;;;;;;;1.63;0.30;;;;;;;26.28;50.11;100017.09;4863914;28;128430;-65
2021/08/08 06:42:48;;;;;;;2.88;0.38;;;;;;;26.81;49.44;100015.88;4896866;28;127768;-71
2021/08/08 06:45:14;;;;;;;0.88;0.20;;;;;;;27.43;47.28;100018.44;4897066;28;125724;-65
2021/08/08 06:47:40;;;;;;;1.30;0.30;;;;;;;28.01;46.44;100003.50;4879436;28;121484;-70
2021/08/08 06:50:06;;;;;;;1.80;0.30;;;;;;;28.67;44.45;100007.75;4896086;28;98178;-70
2021/08/08 06:52:32;;;;;;;2.25;0.28;;;;;;;29.33;43.56;100008.66;4896798;28;97986;-71
2021/08/08 06:54:58;;;;;;;1.02;0.20;;;;;;;29.91;42.25;100011.84;4897037;28;127433;-66
2021/08/08 06:57:25;;;;;;;1.20;0.20;;;;;;;30.54;40.63;100011.69;4898001;28;122770;-65
2021/08/08 06:59:51;;;;;;;3.17;0.35;;;;;;;31.99;37.68;100018.47;4896991;28;98552;-65
2021/08/08 07:02:17;;;;;;;1.15;0.20;;;;;;;31.81;38.12;100013.16;4881046;28;98740;-71
2021/08/08 07:04:43;;;;;;;2.28;0.25;;;;;;;31.84;37.27;100012.34;4898244;28;118576;-70
2021/08/08 07:07:10;;;;;;;1.70;0.10;;;;;;;31.64;37.35;100020.59;4899142;28;99207;-65
2021/08/08 07:09:36;;;;;;;2.45;0.20;;;;;;;31.25;37.93;100010.81;4898420;28;99206;-66
2021/08/08 07:12:02;;;;;;;3.42;0.30;;;;;;;30.94;37.56;100007.25;4894828;28;128269;-66
2021/08/08 07:14:31;;;;;;;1.40;0.15;;;;;;;30.57;38.08;100010.81;4895364;28;114913;-66
2021/08/08 07:16:57;;;;;;;1.30;0.20;;;;;;;30.43;38.73;100008.22;4912830;28;98044;-71
2021/08/08 07:19:23;;;;;;;2.20;0.20;;;;;;;30.34;38.64;100017.06;4896326;28;101883;-71
2021/08/08 07:21:49;;;;;;;1.55;0.20;;;;;;;30.37;38.58;100023.75;4897238;28;128725;-66
2021/08/08 07:24:15;;;;;;;1.73;0.30;;;;;;;30.47;37.90;100018.09;4897047;28;128206;-71
2021/08/08 07:26:41;;;;;;;0.60;0.10;;;;;;;30.71;37.73;100021.00;4896796;28;122997;-71
2021/08/08 07:29:07;;;;;;;1.08;0.20;;;;;;;31.04;37.13;100025.78;4897771;28;128713;-66
2021/08/08 07:31:33;;;;;;;1.25;0.20;;;;;;;31.23;37.05;100024.34;4897031;28;128514;-71
2021/08/08 07:33:59;;;;;;;1.77;0.20;;;;;;;31.53;36.79;100033.91;4897650;28;127240;-66
2021/08/08 07:36:25;;;;;;;1.55;0.17;;;;;;;31.71;35.65;100028.81;4879672;28;113658;-66
2021/08/08 07:38:51;;;;;;;1.50;0.20;;;;;;;31.26;36.88;100034.63;4896327;28;98898;-72
2021/08/08 07:41:17;;;;;;;1.30;0.20;;;;;;;30.82;36.80;100037.59;4895240;28;127196;-72
2021/08/08 07:43:43;;;;;;;1.23;0.20;;;;;;;30.24;37.87;100040.16;4879799;28;126290;-72
2021/08/08 07:46:09;;;;;;;1.15;0.20;;;;;;;30.15;37.16;100037.84;4898837;28;98012;-72
2021/08/08 07:48:35;;;;;;;0.80;0.20;;;;;;;29.48;38.07;100042.69;4896566;28;98590;-66
2021/08/08 07:51:02;;;;;;;0.90;0.20;;;;;;;29.10;39.25;100036.13;4897009;28;98624;-66
2021/08/08 07:53:28;;;;;;;1.02;0.20;;;;;;;28.52;39.59;100046.59;4880810;28;98099;-71
2021/08/08 07:55:55;;;;;;;1.10;0.20;;;;;;;29.20;38.30;100040.03;4878726;28;120747;-72
2021/08/08 07:58:24;;;;;;;1.55;0.20;;;;;;;29.28;37.97;100034.06;4898806;28;98388;-71
2021/08/08 08:00:50;;;;;;;2.58;0.20;;;;;;;29.15;38.71;100043.25;4896061;28;98443;-72
2021/08/08 08:03:17;;;;;;;0.80;0.20;;;;;;;29.81;37.90;100041.28;4895506;28;126809;-71
2021/08/08 08:05:43;;;;;;;2.10;0.13;;;;;;;29.67;38.34;100048.91;4897415;28;121626;-66
2021/08/08 08:08:09;;;;;;;0.63;0.20;;;;;;;29.35;37.52;100052.66;4897446;28;126023;-71
2021/08/08 08:10:35;;;;;;;0.90;0.17;;;;;;;29.20;38.18;100051.13;4895985;28;128598;-66
2021/08/08 08:13:02;;;;;;;1.48;0.20;;;;;;;28.47;39.34;100037.91;4913170;28;99185;-72
2021/08/08 08:15:28;;;;;;;0.47;0.10;;;;;;;28.04;38.88;100035.16;4894725;28;98807;-66
2021/08/08 08:17:55;;;;;;;1.40;0.10;;;;;;;28.04;39.34;100038.72;4863489;28;98486;-66
2021/08/08 08:20:21;;;;;;;1.65;0.20;;;;;;;30.30;36.17;100041.28;4896326;28;113986;-71
2021/08/08 08:22:48;;;;;;;1.13;0.20;;;;;;;32.33;33.73;100053.72;4897438;28;109716;-66
2021/08/08 08:25:14;;;;;;;2.00;0.20;;;;;;;34.02;31.12;100060.19;4901172;28;98038;-71
2021/08/08 08:27:41;;;;;;;2.00;0.15;;;;;;;35.60;28.67;100058.19;4900374;28;98238;-72
2021/08/08 08:30:08;;;;;;;2.20;0.20;;;;;;;35.03;29.31;100053.53;4900282;28;99439;-72
2021/08/08 08:32:34;;;;;;;1.77;0.10;;;;;;;33.62;31.02;100051.94;4866790;28;100309;-66
2021/08/08 08:35:03;;;;;;;1.00;0.10;;;;;;;32.25;32.47;100059.41;4899363;28;122234;-66
2021/08/08 08:37:30;;;;;;;1.55;0.20;;;;;;;33.71;30.66;100063.28;4900986;28;98929;-72
2021/08/08 08:39:56;;;;;;;1.10;0.20;;;;;;;32.97;31.93;100069.28;4897500;28;122684;-66
2021/08/08 08:42:24;;;;;;;1.40;0.10;;;;;;;31.69;33.03;100064.69;4901051;28;116316;-73
2021/08/08 08:44:51;;;;;;;2.20;0.10;;;;;;;33.16;31.17;100060.09;4901154;28;103252;-71
2021/08/08 08:47:18;;;;;;;1.58;0.20;;;;;;;33.03;30.89;100075.94;4899703;28;118472;-72
2021/08/08 08:49:47;;;;;;;0.80;0.15;;;;;;;33.56;30.08;100064.84;4883154;28;99000;-71
2021/08/08 08:52:13;;;;;;;1.83;0.20;;;;;;;35.85;27.33;100074.19;4900532;28;98329;-66
2021/08/08 08:54:39;;;;;;;1.17;0.20;;;;;;;37.70;25.56;100082.06;4898111;28;123966;-65
2021/08/08 08:57:07;;;;;;;1.85;0.20;;;;;;;38.72;24.32;100083.81;4900082;28;98915;-71
2021/08/08 08:59:33;;;;;;;1.17;0.10;;;;;;;38.98;23.75;100081.44;4898842;28;98454;-66
2021/08/08 09:01:59;;;;;;;2.63;0.10;;;;;;;37.91;24.96;100078.38;4899317;28;127673;-66
2021/08/08 09:04:25;;;;;;;1.00;0.10;;;;;;;36.08;26.85;100073.06;4899372;28;122660;-66
2021/08/08 09:06:51;;;;;;;1.80;0.20;;;;;;;38.90;23.40;100077.41;4899461;28;127947;-65
2021/08/08 09:09:17;;;;;;;1.08;0.20;;;;;;;40.17;21.73;100097.94;4914979;28;104131;-66
2021/08/08 09:11:45;;;;;;;1.10;0.17;;;;;;;40.88;21.37;100096.28;4882562;28;98367;-72
2021/08/08 09:14:12;;;;;;;2.72;0.10;;;;;;;40.68;21.76;100090.53;4898662;28;98002;-65
2021/08/08 09:16:40;;;;;;;0.80;0.10;;;;;;;40.64;21.46;100087.06;4899833;28;98188;-72
2021/08/08 09:19:06;;;;;;;1.08;0.10;;;;;;;38.27;23.34;100083.28;4900454;28;101764;-66
2021/08/08 09:21:34;;;;;;;0.60;0.10;;;;;;;36.93;24.62;100085.34;4864198;28;127728;-66
2021/08/08 09:24:02;;;;;;;0.32;0.10;;;;;;;37.73;23.48;100093.16;4897686;28;98269;-72
2021/08/08 09:26:36;;;;;;;0.57;0.10;;;;;;;35.21;26.65;100092.97;4896567;28;98584;-66
2021/08/08 09:29:13;;;;;;;0.30;0.20;;;;;;;36.47;25.66;100090.63;4884231;28;98598;-66
2021/08/08 09:31:41;;;;;;;1.52;0.17;;;;;;;36.90;25.09;100096.69;4899543;28;98197;-66
2021/08/08 09:34:08;;;;;;;0.55;0.10;;;;;;;37.10;25.09;100106.41;4900212;28;97924;-72
2021/08/08 09:36:41;;;;;;;1.48;0.20;;;;;;;38.14;24.35;100096.72;4899975;28;98175;-73
2021/08/08 09:39:08;;;;;;;6.40;4.63;;;;;;;38.99;23.16;100105.56;4899525;28;98300;-66
2021/08/08 09:41:34;;;;;;;1.27;0.15;;;;;;;40.12;21.87;100112.69;4898929;28;99173;-66
2021/08/08 09:44:08;;;;;;;2.17;1.42;;;;;;;40.73;22.07;100107.56;4898703;28;113569;-66
2021/08/08 09:46:36;;;;;;;1.23;0.30;;;;;;;42.01;19.94;100120.75;4900255;28;98754;-72
2021/08/08 09:49:13;;;;;;;1.10;0.40;;;;;;;42.87;20.31;100108.72;4897559;28;105713;-71
2021/08/08 09:51:52;;;;;;;2.28;0.20;;;;;;;43.51;19.25;100115.28;4900273;28;97967;-71
2021/08/08 09:54:19;;;;;;;1.17;0.20;;;;;;;43.04;19.29;100113.78;4899758;28;97899;-66
2021/08/08 09:56:58;;;;;;;1.65;0.20;;;;;;;40.91;20.66;100109.44;4898941;28;98761;-65
2021/08/08 09:59:24;;;;;;;3.25;0.10;;;;;;;38.38;22.65;100094.13;4899560;28;99112;-72
2021/08/08 10:01:50;;;;;;;1.08;0.10;;;;;;;40.28;20.68;100114.31;4898297;28;118695;-65
2021/08/08 10:04:16;;;;;;;2.33;0.50;;;;;;;41.64;19.55;100121.22;4897520;28;122310;-71
2021/08/08 10:06:43;;;;;;;1.80;0.20;;;;;;;42.55;19.38;100113.50;4898491;28;128159;-66
2021/08/08 10:09:13;;;;;;;1.33;0.10;;;;;;;43.21;18.45;100114.75;4878415;28;117909;-66
2021/08/08 10:11:46;;;;;;;0.82;0.20;;;;;;;43.73;18.05;100099.69;4881294;28;98100;-71
2021/08/08 10:14:12;;;;;;;0.80;0.15;;;;;;;44.13;17.06;100118.50;4866621;28;98595;-72
2021/08/08 10:16:41;;;;;;;1.55;0.20;;;;;;;43.93;17.35;100110.13;4896819;28;116880;-72
2021/08/08 10:19:08;;;;;;;1.83;0.10;;;;;;;42.18;18.83;100105.56;4896528;28;99318;-72
2021/08/08 10:21:38;;;;;;;2.22;0.20;;;;;;;41.81;19.04;100093.97;4875075;28;98217;-72
2021/08/08 10:24:06;;;;;;;1.73;0.10;;;;;;;40.90;20.26;100101.44;4897404;28;99803;-72
2021/08/08 10:26:32;;;;;;;1.33;0.20;;;;;;;40.19;20.53;100108.72;4898675;28;98275;-65
2021/08/08 10:28:59;;;;;;;0.73;0.20;;;;;;;41.33;19.51;100111.19;4882015;28;98269;-66
2021/08/08 10:31:27;;;;;;;0.40;0.10;;;;;;;41.76;19.12;100114.47;4888393;28;98964;-66
2021/08/08 10:33:56;;;;;;;2.05;0.10;;;;;;;41.81;19.32;100110.16;4881084;28;98187;-72
2021/08/08 10:36:24;;;;;;;0.88;0.10;;;;;;;42.35;18.75;100117.13;4912049;28;122220;-72
2021/08/08 10:38:52;;;;;;;1.27;0.20;;;;;;;42.54;18.17;100123.28;4898573;28;98408;-65
2021/08/08 10:41:18;;;;;;;0.45;0.10;;;;;;;42.88;17.93;100118.03;4898072;28;99066;-72
2021/08/08 10:43:44;;;;;;;1.02;0.20;;;;;;;42.99;17.54;100128.66;4898539;28;97910;-73
2021/08/08 10:46:13;;;;;;;1.50;0.20;;;;;;;43.12;17.64;100131.94;4897360;28;99540;-65
2021/08/08 10:48:41;;;;;;;0.93;0.20;;;;;;;43.34;17.51;100120.00;4899624;28;109909;-66
2021/08/08 10:51:24;;;;;;;0.93;0.13;;;;;;;41.84;19.08;100123.34;4897784;28;97842;-65
2021/08/08 10:54:19;;;;;;;0.95;0.10;;;;;;;42.24;19.21;100127.53;4880505;28;98423;-66
2021/08/08 10:56:47;;;;;;;1.33;0.10;;;;;;;40.82;19.50;100128.50;4889215;28;128870;-66
2021/08/08 10:59:21;;;;;;;1.13;0.17;;;;;;;41.83;18.88;100131.06;4896793;28;98317;-72
2021/08/08 11:02:07;;;;;;;0.63;0.17;;;;;;;41.59;18.97;100139.69;4898481;28;99587;-72
2021/08/08 11:04:33;;;;;;;0.70;0.15;;;;;;;42.07;18.46;100127.28;4898441;28;98362;-73
2021/08/08 11:07:02;;;;;;;1.13;0.20;;;;;;;42.35;18.31;100125.63;4900198;28;99071;-72
2021/08/08 11:09:32;;;;;;;0.52;0.10;;;;;;;41.87;18.57;100116.72;4880476;28;98565;-72
2021/08/08 11:11:58;;;;;;;0.32;0.10;;;;;;;40.73;19.93;100121.69;4896238;28;98223;-72
2021/08/08 11:14:25;;;;;;;1.35;0.20;;;;;;;41.65;18.60;100126.38;4913299;28;98040;-73
2021/08/08 11:17:07;;;;;;;2.17;0.22;;;;;;;40.99;19.57;100120.38;4897406;28;100158;-72
2021/08/08 11:19:41;;;;;;;0.85;0.10;;;;;;;39.47;20.69;100119.84;4923069;28;98767;-66
2021/08/08 11:22:15;;;;;;;0.63;0.10;;;;;;;39.84;19.94;100123.31;4898243;28;107338;-66
2021/08/08 11:24:44;;;;;;;0.80;0.10;;;;;;;39.39;20.11;100116.59;4897562;28;98127;-65
2021/08/08 11:27:10;;;;;;;1.02;0.10;;;;;;;39.79;20.58;100118.34;4898424;28;98435;-65